Time;durP1;ratioP1;P1;durP2;ratioP2;P2;SDS_P1;SDS_P2;PMS_P1;PMS_P2;Temp;Humidity;BMP_temperature;BMP_pressure;BME280_temperature;BME280_humidity;BME280_pressure;Samples;Min_cycle;Max_cycle;Signal;HPM_P1;HPM_P2
2021/12/13 00:01:37;;;;;;;10.18;3.00;;;;;;;4.90;55.82;98598.28;4534217;31;20087;-76
2021/12/13 00:04:27;;;;;;;8.40;2.83;;;;;;;5.54;53.41;98601.75;4534122;31;20115;-76
2021/12/13 00:06:58;;;;;;;11.90;3.92;;;;;;;4.90;54.65;98598.28;4519794;31;20473;-76
2021/12/13 00:09:27;;;;;;;9.10;3.28;;;;;;;5.47;53.81;98600.13;4533790;31;20146;-76
2021/12/13 00:11:57;;;;;;;10.30;3.42;;;;;;;5.28;54.24;98598.66;4536137;31;20071;-76
2021/12/13 00:14:27;;;;;;;9.10;3.37;;;;;;;5.45;53.31;98609.53;4535718;31;20110;-77
2021/12/13 00:17:09;;;;;;;10.73;3.62;;;;;;;4.86;54.40;98611.94;4521963;31;20099;-76
2021/12/13 00:19:39;;;;;;;9.52;3.10;;;;;;;5.73;51.90;98602.31;4521377;31;20091;-76
2021/12/13 00:22:14;;;;;;;9.98;3.20;;;;;;;5.18;53.14;98609.00;4521981;31;20101;-76
2021/12/13 00:24:44;;;;;;;11.48;3.33;;;;;;;5.51;52.42;98612.00;4536077;31;20099;-76
2021/12/13 00:27:11;;;;;;;10.93;3.65;;;;;;;4.61;54.98;98613.06;4535821;31;20103;-76
2021/12/13 00:29:47;;;;;;;;;;;;;;;5.02;54.39;98617.75;4536096;31;20417;-77
2021/12/13 00:32:52;;;;;;;13.07;3.85;;;;;;;5.16;53.86;98609.91;4536280;31;19982;-76
2021/12/13 00:35:22;;;;;;;11.32;3.65;;;;;;;5.43;53.23;98622.37;4521282;31;20166;-76
2021/12/13 00:37:52;;;;;;;11.80;4.50;;;;;;;5.76;53.62;98622.78;4521624;31;20481;-76
2021/12/13 00:40:24;;;;;;;13.90;5.03;;;;;;;4.77;58.66;98614.59;4521253;31;20087;-76
2021/12/13 00:43:05;;;;;;;13.95;5.45;;;;;;;5.26;57.81;98618.31;4536075;31;20134;-76
2021/12/13 00:45:35;;;;;;;14.18;4.68;;;;;;;5.29;58.22;98614.00;4536009;31;20091;-76
2021/12/13 00:48:04;;;;;;;15.30;5.18;;;;;;;4.68;60.70;98616.41;4521291;31;20119;-76
2021/12/13 00:50:43;;;;;;;15.93;5.07;;;;;;;5.04;59.57;98623.69;4536035;31;20160;-76
2021/12/13 00:53:16;;;;;;;14.20;5.47;;;;;;;5.44;58.58;98623.22;4536036;31;20593;-77
2021/12/13 00:55:44;;;;;;;13.27;5.00;;;;;;;5.93;57.01;98613.13;4535829;31;20162;-76
2021/12/13 00:58:17;;;;;;;12.43;4.50;;;;;;;6.01;56.57;98616.44;4521440;31;20442;-76
2021/12/13 01:00:47;;;;;;;12.80;5.00;;;;;;;6.00;56.60;98617.31;4535754;31;20162;-77
2021/12/13 01:03:16;;;;;;;13.98;5.20;;;;;;;5.98;55.98;98620.78;4535673;31;20143;-76
2021/12/13 01:05:57;;;;;;;12.13;5.07;;;;;;;5.83;56.54;98624.34;4535817;31;20106;-77
2021/12/13 01:09:02;;;;;;;14.50;4.80;;;;;;;6.64;53.83;98613.69;4521245;31;20118;-77
2021/12/13 01:11:44;;;;;;;14.48;5.55;;;;;;;7.04;52.65;98619.78;4535815;31;20168;-77
2021/12/13 01:14:39;;;;;;;15.10;5.47;;;;;;;6.71;53.48;98619.56;4535605;31;20467;-76
2021/12/13 01:17:21;;;;;;;15.48;5.55;;;;;;;6.73;53.17;98622.09;4526613;31;20138;-76
2021/12/13 01:20:00;;;;;;;14.85;5.85;;;;;;;6.94;52.81;98622.53;4535666;31;20589;-76
2021/12/13 01:27:56;;;;;;;12.65;4.75;;;;;;;7.46;51.49;98616.34;4535650;31;20156;-76
2021/12/13 01:30:30;;;;;;;12.37;4.90;;;;;;;7.82;50.48;98626.69;4535196;31;20480;-77
2021/12/13 01:33:01;;;;;;;14.13;4.80;;;;;;;7.25;52.45;98615.06;4535704;31;20469;-77
2021/12/13 01:35:30;;;;;;;14.98;5.43;;;;;;;7.26;51.35;98610.78;4535731;31;20094;-76
2021/12/13 01:38:03;;;;;;;14.45;5.35;;;;;;;7.79;50.66;98601.94;4535287;31;20091;-76
2021/12/13 01:40:33;;;;;;;12.25;4.55;;;;;;;6.67;53.75;98611.03;4535603;31;20099;-76
2021/12/13 01:43:11;;;;;;;12.13;5.30;;;;;;;6.59;54.08;98614.63;4521182;31;20105;-76
2021/12/13 01:45:39;;;;;;;13.00;4.90;;;;;;;7.33;52.09;98611.47;4535257;31;20079;-76
2021/12/13 01:48:20;;;;;;;12.80;4.70;;;;;;;7.04;52.48;98614.66;4535514;31;20127;-76
2021/12/13 01:50:52;;;;;;;12.10;4.30;;;;;;;6.87;53.13;98615.81;4535219;31;20105;-76
2021/12/13 01:53:30;;;;;;;12.02;4.80;;;;;;;6.99;52.83;98626.72;4535549;31;20135;-76
2021/12/13 01:56:01;;;;;;;15.23;5.40;;;;;;;6.87;53.15;98614.97;4535625;31;20162;-76
2021/12/13 02:01:16;;;;;;;10.88;4.40;;;;;;;6.30;55.56;98633.06;4535568;31;20547;-76
2021/12/13 02:03:53;;;;;;;12.18;4.55;;;;;;;6.66;54.11;98631.59;4535609;31;20079;-76
2021/12/13 02:06:29;;;;;;;10.10;4.28;;;;;;;6.08;56.13;98640.25;4535214;31;20413;-76
2021/12/13 02:09:01;;;;;;;13.48;5.18;;;;;;;5.07;59.73;98639.00;4535332;31;20410;-76
2021/12/13 02:11:30;;;;;;;14.55;5.50;;;;;;;6.04;56.93;98638.59;4535193;31;20466;-76
2021/12/13 02:14:07;;;;;;;14.00;4.75;;;;;;;5.26;59.54;98634.50;4535367;31;20414;-76
2021/12/13 02:16:56;;;;;;;11.57;4.25;;;;;;;5.79;57.54;98635.53;4535512;31;20573;-76
2021/12/13 02:19:31;;;;;;;11.68;4.93;;;;;;;6.06;57.37;98640.28;4534859;31;20509;-76
2021/12/13 02:22:31;;;;;;;13.02;4.82;;;;;;;6.13;57.29;98642.72;4535466;31;20131;-77
2021/12/13 02:25:07;;;;;;;14.45;4.72;;;;;;;6.46;56.09;98631.94;4535203;31;20078;-77
2021/12/13 02:27:37;;;;;;;12.85;5.07;;;;;;;6.27;56.67;98638.22;4534971;31;20138;-77
2021/12/13 02:30:13;;;;;;;13.23;5.00;;;;;;;6.99;55.13;98644.66;4520841;31;20546;-77
2021/12/13 02:32:42;;;;;;;11.80;4.85;;;;;;;5.61;59.60;98643.44;4534931;31;20103;-76
2021/12/13 02:35:10;;;;;;;12.35;5.93;;;;;;;4.90;63.67;98644.31;4535055;31;20142;-76
2021/12/13 02:37:40;;;;;;;13.38;4.72;;;;;;;5.31;63.34;98650.63;4535142;31;20101;-76
2021/12/13 02:40:09;;;;;;;12.70;4.82;;;;;;;6.04;60.55;98649.69;4534737;31;20147;-76
2021/12/13 02:42:36;;;;;;;13.13;5.45;;;;;;;5.74;60.95;98652.66;4535231;31;20455;-76
2021/12/13 02:45:14;;;;;;;13.23;5.50;;;;;;;5.87;61.00;98646.50;4520591;31;20097;-76
2021/12/13 02:47:55;;;;;;;13.68;5.18;;;;;;;5.94;61.57;98648.12;4535006;31;20126;-76
2021/12/13 02:50:48;;;;;;;13.18;4.80;;;;;;;5.34;63.03;98653.19;4534947;31;20123;-76
2021/12/13 02:53:20;;;;;;;13.30;4.80;;;;;;;6.28;60.28;98652.75;4520797;31;20131;-77
2021/12/13 02:55:47;;;;;;;14.40;5.72;;;;;;;6.09;61.12;98659.87;4520491;31;20417;-76
2021/12/13 02:58:17;;;;;;;14.43;5.72;;;;;;;6.05;60.59;98650.53;4534903;31;20146;-76
2021/12/13 03:01:03;;;;;;;13.73;4.50;;;;;;;6.58;59.43;98647.09;4534496;31;20210;-76
2021/12/13 03:03:34;;;;;;;13.05;4.93;;;;;;;6.47;58.67;98638.75;4535097;31;20095;-76
2021/12/13 03:06:05;;;;;;;14.45;5.45;;;;;;;5.96;61.62;98640.44;4520632;31;20083;-76
2021/12/13 03:08:39;;;;;;;14.60;5.82;;;;;;;5.84;62.23;98651.66;4534516;31;20105;-76
2021/12/13 03:11:11;;;;;;;14.25;5.22;;;;;;;6.23;60.73;98628.91;4520597;31;20578;-76
2021/12/13 03:13:38;;;;;;;13.18;5.00;;;;;;;5.72;61.91;98641.59;4535033;31;20104;-76
2021/12/13 03:16:15;;;;;;;14.73;5.57;;;;;;;6.34;60.41;98634.72;4534387;31;20083;-77
2021/12/13 03:18:50;;;;;;;14.27;5.70;;;;;;;6.57;59.92;98655.66;4534684;31;20105;-77
2021/12/13 03:21:44;;;;;;;12.57;4.65;;;;;;;7.06;57.85;98638.56;4520453;31;20117;-76
2021/12/13 03:24:26;;;;;;;13.43;5.10;;;;;;;6.44;60.38;98633.69;4520334;31;20121;-76
2021/12/13 03:27:01;;;;;;;13.30;4.95;;;;;;;6.94;59.32;98631.94;4520539;31;20164;-76
2021/12/13 03:29:28;;;;;;;15.15;5.45;;;;;;;7.63;56.26;98633.94;4519852;31;20091;-76
2021/12/13 03:31:57;;;;;;;;;;;;;;;7.82;55.92;98636.97;4535101;31;20109;-76
2021/12/13 03:34:30;;;;;;;14.90;4.80;;;;;;;8.08;54.85;98626.09;4534854;31;20611;-76
2021/12/13 03:37:07;;;;;;;13.18;4.80;;;;;;;6.83;59.43;98624.44;4534211;31;20138;-76
2021/12/13 03:39:40;;;;;;;14.52;4.72;;;;;;;5.91;63.15;98626.84;4534397;31;20146;-76
2021/12/13 03:42:14;;;;;;;11.98;4.93;;;;;;;7.31;58.14;98632.06;4534515;31;20436;-76
2021/12/13 03:44:46;;;;;;;10.63;3.90;;;;;;;7.02;59.45;98624.97;4534120;31;20174;-76
2021/12/13 03:47:20;;;;;;;12.07;4.85;;;;;;;6.36;61.24;98628.69;4536362;31;20477;-76
2021/12/13 03:49:53;;;;;;;12.48;4.18;;;;;;;7.47;58.55;98630.03;4535968;31;20075;-76
2021/12/13 03:52:22;;;;;;;12.82;4.97;;;;;;;8.24;55.68;98624.84;4536387;31;20092;-76
2021/12/13 03:54:52;;;;;;;11.12;4.10;;;;;;;8.27;56.05;98631.63;4536491;31;20142;-76
2021/12/13 03:57:19;;;;;;;13.05;4.62;;;;;;;7.09;60.61;98620.53;4536008;31;20098;-76
2021/12/13 03:59:47;;;;;;;14.85;4.78;;;;;;;7.90;58.34;98635.09;4536141;31;20079;-76
2021/12/13 04:02:24;;;;;;;10.73;3.72;;;;;;;7.75;59.42;98633.69;4536234;31;20122;-76
2021/12/13 04:04:55;;;;;;;11.35;4.72;;;;;;;7.82;58.50;98631.84;4521597;31;20119;-77
2021/12/13 04:07:26;;;;;;;12.60;4.75;;;;;;;8.91;54.90;98645.47;4522031;31;20147;-77
2021/12/13 04:09:57;;;;;;;12.10;3.90;;;;;;;8.31;56.75;98643.56;4536101;31;20154;-76
2021/12/13 04:12:31;;;;;;;11.60;4.03;;;;;;;8.15;57.24;98625.06;4521633;31;20114;-76
2021/12/13 04:15:02;;;;;;;9.93;3.75;;;;;;;7.54;60.62;98632.41;4536082;31;20142;-76
2021/12/13 04:20:36;;;;;;;12.88;4.60;;;;;;;7.50;60.77;98638.50;4497137;31;20429;-76
2021/12/13 04:23:11;;;;;;;12.40;4.05;;;;;;;8.00;58.55;98635.72;4536156;31;20095;-76
2021/12/13 04:25:41;;;;;;;14.43;5.32;;;;;;;6.77;63.49;98628.84;4521506;31;20162;-76
2021/12/13 04:28:22;;;;;;;11.48;3.95;;;;;;;8.31;57.98;98631.53;4535997;31;20110;-76
2021/12/13 04:30:56;;;;;;;11.85;4.20;;;;;;;7.59;61.19;98616.09;4521645;31;20143;-77
2021/12/13 04:33:30;;;;;;;10.82;3.95;;;;;;;8.14;59.02;98620.81;4535759;31;20147;-76
2021/12/13 04:36:05;;;;;;;9.40;3.75;;;;;;;6.72;64.43;98625.53;4536102;31;20091;-77
2021/12/13 04:38:51;;;;;;;11.05;3.58;;;;;;;7.83;60.22;98615.53;4536018;31;20083;-76
2021/12/13 04:41:33;;;;;;;14.60;4.28;;;;;;;7.11;63.05;98622.19;4522080;31;20130;-77
2021/12/13 04:44:08;;;;;;;10.80;3.90;;;;;;;6.57;65.34;98611.25;4536223;31;20163;-77
2021/12/13 04:46:38;;;;;;;9.32;3.45;;;;;;;7.46;62.16;98612.94;4535722;31;20095;-76
2021/12/13 04:49:09;;;;;;;8.82;3.37;;;;;;;7.36;62.31;98608.88;4535825;31;20099;-76
2021/12/13 04:51:47;;;;;;;9.35;3.62;;;;;;;6.45;65.56;98614.03;4521604;31;20112;-76
2021/12/13 04:54:15;;;;;;;10.77;4.25;;;;;;;6.13;66.08;98610.28;4535683;31;20092;-76
2021/12/13 04:56:43;;;;;;;9.32;3.85;;;;;;;5.95;67.95;98618.22;4535987;31;20437;-77
2021/12/13 04:59:13;;;;;;;9.95;3.87;;;;;;;6.60;65.33;98612.06;4535759;31;20290;-77
2021/12/13 05:01:44;;;;;;;11.88;3.95;;;;;;;6.17;66.73;98599.13;4521607;31;20134;-76
2021/12/13 05:04:12;;;;;;;11.43;4.05;;;;;;;6.48;66.21;98614.81;4536025;31;20087;-76
2021/12/13 05:06:40;;;;;;;10.60;3.70;;;;;;;5.99;68.46;98610.50;4535840;31;20087;-76
2021/12/13 05:09:12;;;;;;;11.23;4.18;;;;;;;5.85;68.91;98612.41;4535553;31;20505;-76
2021/12/13 05:11:47;;;;;;;10.88;3.92;;;;;;;5.53;70.45;98607.72;4521521;31;20413;-76
2021/12/13 05:14:15;;;;;;;10.68;3.75;;;;;;;5.63;70.77;98599.03;4525757;31;305416;-76
2021/12/13 05:16:49;;;;;;;12.07;4.10;;;;;;;6.03;68.97;98613.84;4535890;31;20147;-76
2021/12/13 05:19:25;;;;;;;10.43;3.92;;;;;;;5.80;70.45;98609.03;4535593;31;20143;-76
2021/12/13 05:21:55;;;;;;;11.43;4.12;;;;;;;5.81;70.54;98597.94;4535459;31;20142;-76
2021/12/13 05:24:25;;;;;;;10.00;3.62;;;;;;;5.60;71.74;98616.16;4535881;31;20143;-76
2021/12/13 05:27:11;;;;;;;11.00;3.70;;;;;;;5.80;70.82;98598.81;4535893;31;20135;-76
2021/12/13 05:29:45;;;;;;;11.10;3.83;;;;;;;6.35;68.79;98592.81;4535357;31;20142;-76
2021/12/13 05:32:21;;;;;;;11.15;4.20;;;;;;;5.56;71.47;98604.28;4535816;31;20102;-76
2021/12/13 05:34:52;;;;;;;9.77;3.50;;;;;;;5.68;71.57;98604.94;4535583;31;20139;-77
2021/12/13 05:37:20;;;;;;;10.30;4.45;;;;;;;5.37;72.86;98603.66;4535800;31;20087;-77
2021/12/13 05:40:08;;;;;;;9.43;3.55;;;;;;;5.88;71.75;98603.81;4535403;31;20411;-76
2021/12/13 05:42:41;;;;;;;10.77;3.80;;;;;;;6.02;70.56;98597.63;4535322;31;20063;-76
2021/12/13 05:45:12;;;;;;;10.98;3.80;;;;;;;5.76;71.41;98599.72;4535452;31;20088;-76
2021/12/13 05:47:53;;;;;;;9.45;3.67;;;;;;;6.80;67.85;98596.28;4535713;31;20111;-76
2021/12/13 05:50:35;;;;;;;12.68;3.83;;;;;;;5.90;71.23;98597.81;4535182;31;20103;-77
2021/12/13 05:53:11;;;;;;;10.20;3.58;;;;;;;5.76;72.09;98599.72;4508171;31;20503;-76
2021/12/13 05:56:08;;;;;;;11.05;3.55;;;;;;;5.91;71.68;98591.84;4535705;31;20100;-76
2021/12/13 05:58:40;;;;;;;9.68;3.65;;;;;;;5.84;72.49;98594.47;4535430;31;20091;-77
2021/12/13 06:01:22;;;;;;;8.45;3.20;;;;;;;5.94;71.21;98596.91;4535582;31;20098;-76
2021/12/13 06:04:07;;;;;;;10.35;3.60;;;;;;;5.51;73.27;98606.87;4535278;31;20150;-76
2021/12/13 06:06:46;;;;;;;9.23;2.53;;;;;;;5.06;75.01;98608.31;4535537;31;20138;-78
2021/12/13 06:09:39;;;;;;;12.13;3.95;;;;;;;4.99;75.96;98619.47;4534817;31;20134;-78
2021/12/13 06:12:09;;;;;;;9.07;3.70;;;;;;;6.20;71.31;98608.47;4535074;31;20139;-76
2021/12/13 06:14:37;;;;;;;8.82;3.20;;;;;;;5.77;72.71;98602.25;4520794;31;20162;-76
2021/12/13 06:17:27;;;;;;;10.05;3.90;;;;;;;5.61;73.77;98611.00;4535156;31;20099;-76
2021/12/13 06:20:02;;;;;;;9.85;3.78;;;;;;;5.34;74.96;98609.69;4535030;31;20453;-78
2021/12/13 06:22:31;;;;;;;9.82;3.78;;;;;;;5.23;75.62;98602.16;4535506;31;20331;-78
2021/12/13 06:25:01;;;;;;;11.48;4.15;;;;;;;4.98;77.09;98605.84;4534931;31;20079;-78
2021/12/13 06:27:32;;;;;;;11.35;4.10;;;;;;;5.13;76.39;98608.22;4535398;31;20146;-78
2021/12/13 06:30:30;;;;;;;10.57;3.97;;;;;;;5.45;75.46;98619.78;4535226;31;20083;-78
2021/12/13 06:33:01;;;;;;;9.53;3.50;;;;;;;5.01;76.83;98608.38;4535094;31;20091;-78
2021/12/13 06:35:34;;;;;;;12.45;3.90;;;;;;;4.85;78.22;98604.28;4535398;31;20119;-78
2021/12/13 06:38:21;;;;;;;11.52;4.12;;;;;;;4.89;78.57;98614.50;4534854;31;20162;-78
2021/12/13 06:40:56;;;;;;;13.50;4.43;;;;;;;5.48;76.25;98615.47;4535177;31;20138;-78
2021/12/13 06:43:38;;;;;;;11.43;4.65;;;;;;;5.36;76.58;98625.84;4535263;31;20095;-78
2021/12/13 06:46:11;;;;;;;12.45;4.62;;;;;;;5.84;74.02;98638.84;4534748;31;20103;-78
2021/12/13 06:48:46;;;;;;;12.73;4.70;;;;;;;5.82;74.47;98645.72;4535010;31;20100;-78
2021/12/13 06:51:17;;;;;;;11.10;4.25;;;;;;;6.23;72.25;98637.44;4535072;31;20102;-78
2021/12/13 06:54:27;;;;;;;13.32;4.78;;;;;;;6.32;72.07;98646.69;4534758;31;20162;-79
2021/12/13 06:57:00;;;;;;;14.30;5.37;;;;;;;6.01;73.30;98648.91;4453379;32;20097;-76
2021/12/13 06:59:29;;;;;;;12.23;4.50;;;;;;;6.34;71.56;98658.63;4526275;31;20164;-76
2021/12/13 07:02:12;;;;;;;12.68;4.57;;;;;;;6.83;69.85;98657.78;4520161;31;20153;-77
2021/12/13 07:04:55;;;;;;;13.93;4.93;;;;;;;7.25;68.65;98674.13;4534761;31;20430;-76
2021/12/13 07:07:26;;;;;;;13.98;4.85;;;;;;;6.96;68.43;98673.81;4534522;31;20079;-77
2021/12/13 07:09:57;;;;;;;12.57;4.87;;;;;;;6.70;70.27;98686.22;4534152;31;20091;-77
2021/12/13 07:12:27;;;;;;;14.15;5.25;;;;;;;6.08;72.51;98682.09;4534945;31;20155;-76
2021/12/13 07:14:54;;;;;;;11.00;4.50;;;;;;;6.54;70.60;98683.94;4516206;31;20104;-76
2021/12/13 07:17:34;;;;;;;11.20;4.57;;;;;;;6.60;70.56;98693.25;4516560;31;20133;-76
2021/12/13 07:20:13;;;;;;;12.95;4.68;;;;;;;7.26;67.53;98700.63;4516946;31;20107;-78
2021/12/13 07:22:41;;;;;;;13.60;5.28;;;;;;;7.43;67.00;98696.00;4518896;31;20163;-76
2021/12/13 07:25:15;;;;;;;13.95;5.25;;;;;;;7.00;68.71;98706.22;4518454;31;20098;-76
2021/12/13 07:27:47;;;;;;;11.30;4.10;;;;;;;6.71;70.58;98717.00;4518114;31;20101;-76
2021/12/13 07:30:24;;;;;;;14.15;4.35;;;;;;;7.27;67.07;98719.44;4518434;31;20108;-79
2021/12/13 07:32:57;;;;;;;11.02;4.55;;;;;;;7.43;66.82;98724.22;4518876;31;20498;-79
2021/12/13 07:35:43;;;;;;;11.48;4.40;;;;;;;5.69;74.44;98741.50;4518945;31;20250;-79
2021/12/13 07:38:26;;;;;;;12.45;4.95;;;;;;;7.78;66.44;98736.37;4504425;31;20088;-79
2021/12/13 07:40:56;;;;;;;11.30;4.20;;;;;;;7.52;66.75;98747.16;4518634;31;20074;-79
2021/12/13 07:43:38;;;;;;;11.38;4.75;;;;;;;7.00;69.44;98759.25;4517503;31;20100;-80
2021/12/13 07:46:20;;;;;;;9.88;3.97;;;;;;;7.94;66.32;98754.88;4501857;31;20587;-80
2021/12/13 07:48:47;;;;;;;11.73;4.75;;;;;;;7.34;67.88;98767.22;4516105;31;20087;-79
2021/12/13 07:51:36;;;;;;;13.50;5.32;;;;;;;7.46;67.50;98757.56;4516248;31;20103;-79
2021/12/13 07:54:05;;;;;;;12.63;4.72;;;;;;;7.59;66.39;98760.75;4516105;31;20108;-79
2021/12/13 07:56:33;;;;;;;11.30;4.57;;;;;;;7.68;66.93;98768.28;4501588;31;20099;-79
2021/12/13 07:59:36;;;;;;;11.65;4.15;;;;;;;8.77;62.41;98768.50;4517055;31;20406;-80
2021/12/13 08:02:25;;;;;;;11.48;4.03;;;;;;;8.70;62.08;98775.50;4518624;31;20096;-80
2021/12/13 08:05:13;;;;;;;10.10;3.90;;;;;;;8.10;65.24;98783.69;4518659;31;20560;-80
2021/12/13 08:07:53;;;;;;;10.27;4.10;;;;;;;7.81;66.69;98776.56;4518391;31;20096;-79
2021/12/13 08:10:30;;;;;;;9.43;3.83;;;;;;;7.29;69.18;98776.72;4518225;31;20068;-80
2021/12/13 08:13:13;;;;;;;9.93;3.83;;;;;;;6.64;71.61;98782.06;4518498;31;20395;-80
2021/12/13 08:15:46;;;;;;;10.95;4.43;;;;;;;7.29;69.09;98775.00;4491346;31;20170;-79
2021/12/13 08:18:39;;;;;;;10.43;4.32;;;;;;;7.40;68.30;98777.38;4518020;31;20101;-80
2021/12/13 08:21:20;;;;;;;9.07;3.40;;;;;;;7.77;67.71;98778.38;4518063;31;20079;-80
2021/12/13 08:23:50;;;;;;;9.95;3.90;;;;;;;7.30;69.02;98781.81;4504016;31;20121;-80
2021/12/13 08:26:26;;;;;;;9.98;4.12;;;;;;;7.08;70.63;98788.19;4517904;31;20456;-80
2021/12/13 08:28:54;;;;;;;9.30;4.07;;;;;;;6.89;71.28;98792.78;4517967;31;20506;-80
2021/12/13 08:31:29;;;;;;;10.38;4.78;;;;;;;7.19;69.74;98783.72;4518620;31;20162;-79
2021/12/13 08:33:59;;;;;;;8.85;3.60;;;;;;;7.36;69.36;98786.00;4506745;31;20478;-79
2021/12/13 08:36:36;;;;;;;10.43;3.97;;;;;;;6.52;72.40;98779.69;4520490;31;20580;-79
2021/12/13 08:39:17;;;;;;;11.18;4.53;;;;;;;6.80;72.19;98780.09;4520152;31;20461;-79
2021/12/13 08:41:53;;;;;;;11.00;3.87;;;;;;;7.59;68.85;98773.59;4505859;31;20171;-79
2021/12/13 08:44:29;;;;;;;9.02;3.67;;;;;;;7.42;69.09;98770.47;4520013;31;20114;-80
2021/12/13 08:47:15;;;;;;;11.73;4.80;;;;;;;6.05;74.52;98773.50;4519993;31;20106;-80
2021/12/13 08:49:45;;;;;;;10.75;4.07;;;;;;;6.46;73.25;98780.63;4505501;31;20148;-78
2021/12/13 08:52:23;;;;;;;12.60;4.20;;;;;;;5.85;75.77;98760.94;4519975;31;20088;-78
2021/12/13 08:55:11;;;;;;;11.12;4.43;;;;;;;6.19;74.52;98775.91;4520038;31;20091;-79
2021/12/13 08:57:55;;;;;;;10.50;4.37;;;;;;;6.63;73.16;98798.31;4520113;31;20087;-79
2021/12/13 09:00:42;;;;;;;9.63;4.20;;;;;;;6.83;71.85;98790.34;4519655;31;20434;-78
2021/12/13 09:03:27;;;;;;;11.05;4.32;;;;;;;7.25;70.24;98783.63;4520027;31;20072;-78
2021/12/13 09:06:09;;;;;;;10.77;3.92;;;;;;;7.63;68.76;98784.62;4519600;31;20102;-79
2021/12/13 09:08:41;;;;;;;10.65;4.10;;;;;;;7.16;70.06;98773.53;4519796;31;20167;-79
2021/12/13 09:11:14;;;;;;;10.35;3.97;;;;;;;6.98;71.08;98774.69;4520220;31;20080;-78
2021/12/13 09:14:00;;;;;;;10.48;4.00;;;;;;;6.73;72.32;98793.91;4519789;31;20118;-79
2021/12/13 09:16:40;;;;;;;9.43;3.70;;;;;;;7.46;69.10;98780.69;4519677;31;20146;-79
2021/12/13 09:19:21;;;;;;;9.32;4.00;;;;;;;7.39;69.10;98789.34;4519726;31;20103;-79
2021/12/13 09:22:00;;;;;;;7.28;3.30;;;;;;;7.14;70.29;98788.13;4519949;31;20139;-79
2021/12/13 09:24:35;;;;;;;9.45;3.95;;;;;;;7.24;69.56;98787.09;4505405;31;20102;-79
2021/12/13 09:27:18;;;;;;;9.57;3.62;;;;;;;7.07;70.87;98802.75;4519727;31;20091;-79
2021/12/13 09:29:54;;;;;;;9.80;3.67;;;;;;;7.24;69.51;98805.88;4519461;31;20148;-80
2021/12/13 09:32:24;;;;;;;9.82;3.90;;;;;;;7.02;70.19;98802.00;4520956;31;20106;-81
2021/12/13 09:35:19;;;;;;;9.30;3.20;;;;;;;7.54;68.73;98794.19;4505596;31;20142;-81
2021/12/13 09:37:46;;;;;;;9.00;3.53;;;;;;;5.96;74.27;98801.81;4492405;31;20159;-81
2021/12/13 09:40:15;;;;;;;8.93;3.80;;;;;;;6.27;74.81;98794.56;4519694;31;20113;-83
2021/12/13 09:42:49;;;;;;;10.13;4.12;;;;;;;7.08;70.84;98794.19;4522230;31;20074;-83
2021/12/13 09:45:27;;;;;;;10.50;3.95;;;;;;;7.63;69.48;98805.19;4518054;31;20744;-83
2021/12/13 09:47:55;;;;;;;10.02;3.60;;;;;;;7.11;70.85;98799.25;4514309;31;20063;-82
2021/12/13 09:50:27;;;;;;;9.15;3.70;;;;;;;8.27;65.96;98807.31;4515276;31;20068;-83
2021/12/13 09:52:58;;;;;;;9.65;3.83;;;;;;;7.81;68.08;98808.25;4510919;31;20088;-81
2021/12/13 09:55:41;;;;;;;9.85;3.30;;;;;;;6.81;71.08;98810.88;4521341;31;20048;-80
2021/12/13 09:58:13;;;;;;;7.15;3.12;;;;;;;6.47;73.13;98800.25;4519670;31;20083;-80
2021/12/13 10:00:46;;;;;;;10.15;3.83;;;;;;;5.67;75.93;98786.75;4519551;31;20155;-80
2021/12/13 10:03:22;;;;;;;9.80;4.00;;;;;;;5.83;77.73;98801.06;4519583;31;20122;-80
2021/12/13 10:05:52;;;;;;;9.07;3.62;;;;;;;7.24;70.61;98802.47;4519510;31;20401;-80
2021/12/13 10:08:32;;;;;;;10.27;4.22;;;;;;;8.36;66.62;98807.16;4519428;31;20163;-79
2021/12/13 10:11:05;;;;;;;10.85;4.62;;;;;;;9.14;62.79;98799.31;4505166;31;20147;-79
2021/12/13 10:13:36;;;;;;;8.45;3.42;;;;;;;9.98;59.83;98807.38;4519728;31;20135;-79
2021/12/13 10:16:09;;;;;;;9.10;4.05;;;;;;;8.64;62.82;98803.97;4519448;31;20056;-79
2021/12/13 10:18:41;;;;;;;8.90;3.62;;;;;;;10.11;58.30;98807.03;4519670;31;20117;-78
2021/12/13 10:21:14;;;;;;;9.77;4.25;;;;;;;10.23;57.97;98803.28;4518850;31;20398;-80
2021/12/13 10:23:46;;;;;;;8.98;3.75;;;;;;;10.89;56.20;98811.56;4519505;31;20127;-79
2021/12/13 10:26:28;;;;;;;9.55;3.83;;;;;;;11.53;53.06;98814.63;4519455;31;20147;-79
2021/12/13 10:28:56;;;;;;;7.75;3.58;;;;;;;11.13;53.76;98809.94;4519378;31;20115;-81
2021/12/13 10:31:29;;;;;;;9.23;4.05;;;;;;;9.78;58.26;98807.94;4504724;31;20107;-80
2021/12/13 10:33:57;;;;;;;11.18;4.55;;;;;;;9.80;58.94;98809.63;4519655;31;20102;-79
2021/12/13 10:36:28;;;;;;;11.45;4.60;;;;;;;10.38;56.34;98814.84;4519359;31;20422;-80
2021/12/13 10:39:00;;;;;;;8.57;3.67;;;;;;;8.54;62.16;98812.78;4519382;31;20095;-78
2021/12/13 10:41:40;;;;;;;9.45;3.97;;;;;;;7.11;69.17;98806.09;4519222;31;20159;-78
2021/12/13 10:44:09;;;;;;;11.27;4.45;;;;;;;9.32;61.21;98810.91;4519382;31;20127;-77
2021/12/13 10:46:41;;;;;;;8.95;3.67;;;;;;;10.02;58.21;98811.59;4504891;31;20084;-78
2021/12/13 10:49:12;;;;;;;9.73;3.95;;;;;;;10.48;57.31;98799.94;4519065;31;20566;-78
2021/12/13 10:51:42;;;;;;;8.65;3.65;;;;;;;10.93;55.71;98795.06;4519110;31;20159;-78
2021/12/13 10:54:19;;;;;;;9.60;3.97;;;;;;;11.38;54.63;98791.88;4518880;31;20513;-78
2021/12/13 10:56:50;;;;;;;10.60;4.85;;;;;;;11.44;54.60;98792.50;4519168;31;20113;-78
2021/12/13 10:59:23;;;;;;;10.02;4.07;;;;;;;11.30;53.73;98794.72;4518877;31;20144;-78
2021/12/13 11:01:53;;;;;;;11.82;5.12;;;;;;;11.28;53.39;98794.78;4519207;31;20092;-78
2021/12/13 11:04:33;;;;;;;9.00;3.97;;;;;;;12.54;49.49;98791.09;4519206;31;20143;-77
2021/12/13 11:07:02;;;;;;;10.65;4.87;;;;;;;11.49;52.49;98793.22;4519007;31;20464;-78
2021/12/13 11:09:29;;;;;;;12.23;5.03;;;;;;;12.27;49.89;98789.56;4518755;31;20164;-78
2021/12/13 11:12:03;;;;;;;8.52;3.80;;;;;;;11.50;51.77;98781.97;4519034;31;20106;-77
2021/12/13 11:14:32;;;;;;;9.77;4.20;;;;;;;10.34;56.28;98787.47;4518777;31;20083;-77
2021/12/13 11:17:07;;;;;;;10.07;4.28;;;;;;;10.17;56.56;98784.50;4518893;31;20152;-77
2021/12/13 11:19:36;;;;;;;10.45;4.37;;;;;;;9.81;58.43;98784.69;4518638;31;20423;-77
2021/12/13 11:22:13;;;;;;;9.63;4.05;;;;;;;10.62;55.90;98787.47;4504639;31;20111;-77
2021/12/13 11:24:47;;;;;;;8.48;3.30;;;;;;;9.89;57.84;98782.75;4518920;31;20147;-77
2021/12/13 11:27:18;;;;;;;8.90;4.18;;;;;;;9.08;60.25;98774.59;4518696;31;20080;-77
2021/12/13 11:29:46;;;;;;;9.38;4.07;;;;;;;9.43;59.99;98778.81;4518686;31;20107;-78
2021/12/13 11:32:34;;;;;;;7.43;3.33;;;;;;;10.05;57.29;98772.81;4504711;31;20088;-77
2021/12/13 11:35:30;;;;;;;7.90;3.45;;;;;;;9.42;58.92;98772.00;4518610;31;20091;-77
2021/12/13 11:38:30;;;;;;;10.15;4.53;;;;;;;9.26;59.49;98773.28;4518639;31;20087;-78
2021/12/13 11:41:11;;;;;;;14.98;6.20;;;;;;;10.28;56.90;98780.75;4518263;31;20157;-78
2021/12/13 11:44:03;;;;;;;11.27;3.85;;;;;;;10.45;56.99;98785.41;4519121;31;20139;-78
2021/12/13 11:47:12;;;;;;;10.10;3.90;;;;;;;10.92;54.14;98772.75;4518710;31;20083;-78
2021/12/13 11:49:48;;;;;;;9.18;3.67;;;;;;;11.32;53.09;98763.66;4504061;31;20444;-78
2021/12/13 11:52:53;;;;;;;7.95;3.10;;;;;;;11.92;51.66;98771.03;4518417;31;20485;-78
2021/12/13 11:55:47;;;;;;;8.48;3.60;;;;;;;11.34;52.16;98765.28;4518479;31;20107;-78
2021/12/13 11:58:50;;;;;;;8.48;3.17;;;;;;;10.66;54.63;98768.44;4518304;31;20162;-77
2021/12/13 12:01:40;;;;;;;7.00;3.08;;;;;;;10.44;56.11;98770.84;4518066;31;20139;-77
2021/12/13 12:04:07;;;;;;;9.50;3.78;;;;;;;9.91;57.83;98767.22;4518302;31;20106;-77
2021/12/13 12:06:37;;;;;;;;;;;;;;;10.03;57.49;98770.28;4504792;31;20100;-77
2021/12/13 12:09:29;;;;;;;8.95;3.37;;;;;;;10.84;55.53;98769.56;4519864;31;19971;-77
2021/12/13 12:12:30;;;;;;;8.50;3.90;;;;;;;10.82;54.84;98772.19;4505954;31;20097;-77
2021/12/13 12:15:01;;;;;;;7.47;3.45;;;;;;;11.14;53.95;98771.12;4505401;31;20092;-76
2021/12/13 12:17:30;;;;;;;9.10;3.90;;;;;;;9.77;58.16;98771.00;4506477;31;20112;-76
2021/12/13 12:19:58;;;;;;;10.55;4.28;;;;;;;9.82;58.80;98771.75;4520005;31;20790;-77
2021/12/13 12:22:31;;;;;;;9.93;4.00;;;;;;;10.03;57.78;98769.44;4505575;31;20118;-76
2021/12/13 12:25:00;;;;;;;8.70;3.72;;;;;;;9.17;59.71;98766.63;4520309;31;20136;-77
2021/12/13 12:27:30;;;;;;;7.97;3.53;;;;;;;9.74;59.14;98772.84;4520069;31;20137;-77
2021/12/13 12:30:04;;;;;;;7.70;3.45;;;;;;;9.57;59.24;98770.75;4520093;31;20122;-77